createdAt,value
2017-08-31T00:00:15.340Z,4.90
2017-08-31T00:02:44.529Z,6.40
2017-08-31T00:05:13.507Z,3.10
2017-08-31T00:07:42.600Z,3.80
2017-08-31T00:10:11.770Z,6.63
2017-08-31T00:12:40.890Z,4.70
2017-08-31T00:15:09.850Z,6.33
2017-08-31T00:17:39.235Z,9.83
2017-08-31T00:20:08.762Z,5.60
2017-08-31T00:22:37.820Z,7.13
2017-08-31T00:25:07.171Z,6.27
2017-08-31T00:27:36.226Z,6.17
2017-08-31T00:30:06.009Z,3.37
2017-08-31T00:32:35.251Z,6.53
2017-08-31T00:35:04.622Z,7.50
2017-08-31T00:37:34.087Z,4.87
2017-08-31T00:40:03.633Z,4.50
2017-08-31T00:42:32.978Z,3.63
2017-08-31T00:45:02.218Z,5.40
2017-08-31T00:47:31.539Z,4.77
2017-08-31T00:50:00.375Z,6.53
2017-08-31T00:52:29.668Z,5.50
2017-08-31T00:54:58.360Z,5.90
2017-08-31T00:57:27.341Z,5.30
2017-08-31T00:59:56.391Z,4.87
2017-08-31T01:02:25.743Z,5.73
2017-08-31T01:04:54.865Z,3.40
2017-08-31T01:07:24.186Z,5.60
2017-08-31T01:09:53.631Z,7.40
2017-08-31T01:12:22.783Z,5.43
2017-08-31T01:14:52.705Z,9.27
2017-08-31T01:17:21.945Z,3.90
2017-08-31T01:19:51.936Z,7.37
2017-08-31T01:22:21.199Z,3.70
2017-08-31T01:24:50.124Z,5.07
2017-08-31T01:27:20.002Z,6.17
2017-08-31T01:29:49.148Z,5.37
2017-08-31T01:32:18.176Z,5.37
2017-08-31T01:34:47.464Z,5.03
2017-08-31T01:37:16.680Z,8.33
2017-08-31T01:39:45.839Z,4.50
2017-08-31T01:42:15.518Z,8.80
2017-08-31T01:44:44.836Z,4.70
2017-08-31T01:47:14.879Z,5.50
2017-08-31T01:49:44.262Z,5.23
2017-08-31T01:52:13.216Z,3.93
2017-08-31T01:54:42.332Z,5.07
2017-08-31T01:57:11.598Z,5.17
2017-08-31T01:59:40.745Z,3.23
2017-08-31T02:02:09.981Z,6.20
2017-08-31T02:04:38.867Z,3.37
2017-08-31T02:07:08.270Z,4.67
2017-08-31T02:09:37.484Z,5.57
2017-08-31T02:12:06.574Z,3.67
2017-08-31T02:14:36.216Z,5.33
2017-08-31T02:17:05.563Z,5.37
2017-08-31T02:19:35.300Z,9.07
2017-08-31T02:22:04.451Z,4.57
2017-08-31T02:24:34.183Z,6.53
2017-08-31T02:27:03.858Z,4.63
2017-08-31T02:29:32.792Z,4.87
2017-08-31T02:32:01.916Z,8.40
2017-08-31T02:34:31.058Z,7.33
2017-08-31T02:37:00.567Z,5.70
2017-08-31T02:39:29.817Z,6.93
2017-08-31T02:41:58.773Z,4.20
2017-08-31T02:44:28.352Z,6.37
2017-08-31T02:46:59.036Z,6.10
2017-08-31T02:49:28.372Z,4.30
2017-08-31T02:51:57.694Z,3.93
2017-08-31T02:54:27.102Z,11.20
2017-08-31T02:56:56.188Z,7.67
2017-08-31T02:59:24.997Z,5.70
2017-08-31T03:01:54.244Z,4.83
2017-08-31T03:04:23.494Z,6.90
2017-08-31T03:06:53.719Z,4.57
2017-08-31T03:09:22.868Z,6.77
2017-08-31T03:11:51.998Z,7.07
2017-08-31T03:14:21.148Z,6.97
2017-08-31T03:16:50.104Z,7.03
2017-08-31T03:19:19.022Z,5.40
2017-08-31T03:21:48.207Z,6.40
2017-08-31T03:24:17.297Z,4.13
2017-08-31T03:26:46.128Z,6.03
2017-08-31T03:29:15.218Z,4.73
2017-08-31T03:31:43.870Z,7.27
2017-08-31T03:34:12.934Z,6.87
2017-08-31T03:36:41.898Z,3.80
2017-08-31T03:39:10.944Z,4.93
2017-08-31T03:41:40.285Z,4.27
2017-08-31T03:44:09.478Z,9.50
2017-08-31T03:46:38.689Z,6.57
2017-08-31T03:49:07.700Z,5.77
2017-08-31T03:51:36.776Z,5.87
2017-08-31T03:54:06.755Z,5.00
2017-08-31T03:56:36.327Z,6.00
2017-08-31T03:59:05.554Z,5.47
2017-08-31T04:01:35.230Z,8.00
2017-08-31T04:04:04.903Z,4.60
2017-08-31T04:06:34.263Z,6.23
2017-08-31T04:09:03.650Z,5.10
2017-08-31T04:11:32.689Z,4.80
2017-08-31T04:14:02.209Z,5.70
2017-08-31T04:16:31.628Z,8.93
2017-08-31T04:19:00.899Z,6.53
2017-08-31T04:21:29.657Z,6.43
2017-08-31T04:23:59.045Z,5.37
2017-08-31T04:26:28.443Z,5.07
2017-08-31T04:28:57.464Z,5.37
2017-08-31T04:31:26.675Z,6.07
2017-08-31T04:33:56.177Z,4.73
2017-08-31T04:36:25.469Z,4.90
2017-08-31T04:38:54.592Z,7.07
2017-08-31T04:41:23.571Z,6.83
2017-08-31T04:43:52.788Z,7.13
2017-08-31T04:46:21.896Z,6.67
2017-08-31T04:48:51.048Z,7.70
2017-08-31T04:51:19.961Z,5.70
2017-08-31T04:53:49.470Z,5.10
2017-08-31T04:56:18.897Z,8.00
2017-08-31T04:58:47.734Z,5.03
2017-08-31T05:01:16.755Z,4.73
2017-08-31T05:03:46.281Z,8.50
2017-08-31T05:06:15.672Z,6.77
2017-08-31T05:08:45.108Z,5.90
2017-08-31T05:11:14.532Z,10.23
2017-08-31T05:13:43.946Z,8.80
2017-08-31T05:16:13.141Z,6.37
2017-08-31T05:18:43.165Z,9.27
2017-08-31T05:21:12.126Z,6.87
2017-08-31T05:23:41.678Z,6.90
2017-08-31T05:26:11.263Z,6.90
2017-08-31T05:28:40.869Z,5.50
2017-08-31T05:31:09.990Z,6.57
2017-08-31T05:33:39.296Z,7.90
2017-08-31T05:36:08.289Z,6.63
2017-08-31T05:38:37.823Z,7.70
2017-08-31T05:41:08.016Z,11.70
2017-08-31T05:43:37.097Z,9.03
2017-08-31T05:46:06.149Z,11.43
2017-08-31T05:48:36.404Z,6.10
2017-08-31T05:51:05.866Z,5.87
2017-08-31T05:53:35.608Z,10.07
2017-08-31T05:56:04.891Z,6.20
2017-08-31T05:58:34.451Z,8.47
2017-08-31T06:01:03.980Z,11.00
2017-08-31T06:03:32.960Z,6.87
2017-08-31T06:06:02.350Z,9.23
2017-08-31T06:08:32.017Z,6.20
2017-08-31T06:11:01.521Z,6.57
2017-08-31T06:13:30.907Z,8.33
2017-08-31T06:16:00.751Z,8.00
2017-08-31T06:18:29.889Z,6.30
2017-08-31T06:20:59.638Z,7.30
2017-08-31T06:23:29.280Z,7.57
2017-08-31T06:25:58.788Z,8.03
2017-08-31T06:28:28.568Z,7.17
2017-08-31T06:30:58.576Z,10.20
2017-08-31T06:33:27.934Z,10.93
2017-08-31T06:35:56.869Z,10.37
2017-08-31T06:38:27.822Z,7.40
2017-08-31T06:40:57.780Z,9.33
2017-08-31T06:43:26.737Z,8.50
2017-08-31T06:45:56.226Z,11.93
2017-08-31T06:48:26.021Z,12.40
2017-08-31T06:50:55.910Z,9.67
2017-08-31T06:53:25.432Z,7.80
2017-08-31T06:55:55.554Z,8.07
2017-08-31T06:58:24.666Z,11.60
2017-08-31T07:00:54.467Z,8.67
2017-08-31T07:03:24.323Z,8.27
2017-08-31T07:05:53.810Z,7.23
2017-08-31T07:08:23.491Z,8.40
2017-08-31T07:10:52.866Z,10.93
2017-08-31T07:13:22.413Z,8.17
2017-08-31T07:15:52.787Z,7.87
2017-08-31T07:18:22.255Z,6.30
2017-08-31T07:20:51.749Z,7.70
2017-08-31T07:23:20.952Z,9.63
2017-08-31T07:25:50.428Z,8.50
2017-08-31T07:28:19.533Z,5.47
2017-08-31T07:30:48.730Z,5.77
2017-08-31T07:33:18.422Z,7.30
2017-08-31T07:35:47.877Z,6.87
2017-08-31T07:38:17.056Z,6.30
2017-08-31T07:40:46.608Z,17.67
2017-08-31T07:43:16.008Z,5.50
2017-08-31T07:45:44.985Z,5.67
2017-08-31T07:48:14.644Z,5.60
2017-08-31T07:50:43.782Z,6.00
2017-08-31T07:53:13.098Z,3.30
2017-08-31T07:55:42.536Z,2.43
2017-08-31T07:58:12.290Z,2.63
2017-08-31T08:00:41.711Z,1.00
2017-08-31T08:03:10.849Z,1.33
2017-08-31T08:05:40.471Z,0.77
2017-08-31T08:08:10.259Z,1.00
2017-08-31T08:10:39.541Z,1.03
2017-08-31T08:13:08.865Z,0.53
2017-08-31T08:15:38.009Z,0.60
2017-08-31T08:18:07.976Z,0.50
2017-08-31T08:20:37.478Z,1.20
2017-08-31T08:23:06.678Z,0.50
2017-08-31T08:25:36.070Z,1.50
2017-08-31T08:28:05.302Z,2.10
2017-08-31T08:30:34.469Z,1.20
2017-08-31T08:33:03.671Z,1.50
2017-08-31T08:35:33.035Z,1.10
2017-08-31T08:38:02.784Z,0.70
2017-08-31T08:40:32.372Z,0.93
2017-08-31T08:43:01.532Z,1.10
2017-08-31T08:45:31.187Z,1.73
2017-08-31T08:48:00.534Z,0.97
2017-08-31T08:50:30.145Z,0.90
2017-08-31T08:52:59.262Z,0.80
2017-08-31T08:55:28.402Z,0.70
2017-08-31T08:57:58.318Z,0.63
2017-08-31T09:00:27.836Z,0.80
2017-08-31T09:02:56.701Z,2.27
2017-08-31T09:05:26.464Z,1.80
2017-08-31T09:07:56.111Z,0.90
2017-08-31T09:10:25.965Z,0.77
2017-08-31T09:12:55.498Z,0.50
2017-08-31T09:15:25.132Z,0.80
2017-08-31T09:17:54.282Z,2.00
2017-08-31T09:20:23.259Z,2.10
2017-08-31T09:22:52.579Z,1.10
2017-08-31T09:25:21.549Z,1.80
2017-08-31T09:27:50.803Z,1.13
2017-08-31T09:30:20.486Z,1.87
2017-08-31T09:32:49.974Z,0.90
2017-08-31T09:35:19.065Z,1.43
2017-08-31T09:37:50.001Z,0.93
2017-08-31T09:40:19.429Z,1.67
2017-08-31T09:42:48.965Z,0.90
2017-08-31T09:45:18.953Z,1.17
2017-08-31T09:47:48.806Z,1.20
2017-08-31T09:50:17.933Z,0.80
2017-08-31T09:52:47.320Z,1.10
2017-08-31T09:55:17.339Z,0.73
2017-08-31T09:57:46.737Z,1.80
2017-08-31T10:00:16.423Z,1.73
2017-08-31T10:02:45.822Z,0.80
2017-08-31T10:05:15.612Z,1.47
2017-08-31T10:07:44.918Z,0.90
2017-08-31T10:10:14.408Z,1.07
2017-08-31T10:12:43.899Z,1.13
2017-08-31T10:15:13.216Z,1.30
2017-08-31T10:17:42.430Z,2.17
2017-08-31T10:20:11.819Z,1.90
2017-08-31T10:22:41.323Z,1.90
2017-08-31T10:25:10.615Z,1.83
2017-08-31T10:27:40.446Z,1.80
2017-08-31T10:30:09.545Z,2.60
2017-08-31T10:32:39.099Z,2.10
2017-08-31T10:35:08.987Z,2.03
2017-08-31T10:37:39.005Z,2.50
2017-08-31T10:40:08.339Z,2.00
2017-08-31T10:42:37.541Z,1.83
2017-08-31T10:45:07.222Z,1.73
2017-08-31T10:47:36.481Z,2.10
2017-08-31T10:50:09.312Z,1.50
2017-08-31T10:52:38.700Z,1.70
2017-08-31T10:55:08.472Z,3.10
2017-08-31T10:57:37.966Z,1.60
2017-08-31T11:00:07.763Z,1.77
2017-08-31T11:02:37.525Z,1.67
2017-08-31T11:05:07.453Z,2.27
2017-08-31T11:07:37.147Z,1.57
2017-08-31T11:10:06.472Z,1.40
2017-08-31T11:12:36.275Z,1.57
2017-08-31T11:15:05.749Z,1.43
2017-08-31T11:17:35.107Z,1.30
2017-08-31T11:20:04.273Z,1.23
2017-08-31T11:22:34.450Z,4.23
2017-08-31T11:25:04.272Z,2.17
2017-08-31T11:27:33.929Z,1.60
2017-08-31T11:30:03.705Z,1.30
2017-08-31T11:32:33.331Z,1.87
2017-08-31T11:35:02.995Z,2.27
2017-08-31T11:37:32.415Z,1.53
2017-08-31T11:40:01.839Z,2.80
2017-08-31T11:42:30.968Z,2.40
2017-08-31T11:45:00.407Z,1.67
2017-08-31T11:47:29.496Z,1.10
2017-08-31T11:49:59.196Z,1.70
2017-08-31T11:52:28.313Z,2.30
2017-08-31T11:54:57.758Z,1.50
2017-08-31T11:57:27.253Z,1.80
2017-08-31T11:59:56.368Z,3.40
2017-08-31T12:02:26.939Z,1.70
2017-08-31T12:04:55.957Z,2.90
2017-08-31T12:07:25.137Z,1.53
2017-08-31T12:09:54.703Z,2.13
2017-08-31T12:12:23.658Z,1.90
2017-08-31T12:14:53.411Z,2.43
2017-08-31T12:17:23.062Z,2.30
2017-08-31T12:19:52.634Z,1.40
2017-08-31T12:22:21.734Z,2.80
2017-08-31T12:24:51.222Z,2.60
2017-08-31T12:27:21.682Z,2.17
2017-08-31T12:29:51.162Z,1.53
2017-08-31T12:32:21.016Z,1.40
2017-08-31T12:34:50.219Z,0.93
2017-08-31T12:37:20.084Z,2.03
2017-08-31T12:39:49.271Z,1.47
2017-08-31T12:42:18.823Z,1.50
2017-08-31T12:44:48.215Z,1.50
2017-08-31T12:47:18.487Z,1.73
2017-08-31T12:49:47.890Z,2.73
2017-08-31T12:52:17.196Z,1.57
2017-08-31T12:54:46.324Z,2.20
2017-08-31T12:57:16.097Z,1.30
2017-08-31T12:59:45.874Z,1.60
2017-08-31T13:02:15.139Z,1.30
2017-08-31T13:04:44.470Z,2.17
2017-08-31T13:07:13.656Z,1.40
2017-08-31T13:09:43.324Z,1.73
2017-08-31T13:12:13.776Z,0.83
2017-08-31T13:14:43.461Z,1.33
2017-08-31T13:17:12.735Z,1.40
2017-08-31T13:19:42.214Z,1.50
2017-08-31T13:22:11.933Z,1.87
2017-08-31T13:24:41.578Z,1.70
2017-08-31T13:27:11.031Z,1.40
2017-08-31T13:29:41.149Z,1.10
2017-08-31T13:32:10.776Z,1.10
2017-08-31T13:34:40.191Z,1.57
2017-08-31T13:37:09.855Z,2.07
2017-08-31T13:39:39.808Z,1.20
2017-08-31T13:42:09.169Z,1.43
2017-08-31T13:44:38.471Z,1.33
2017-08-31T13:47:08.317Z,1.23
2017-08-31T13:49:37.365Z,1.50
2017-08-31T13:52:06.602Z,1.47
2017-08-31T13:54:36.078Z,1.43
2017-08-31T13:57:05.393Z,1.70
2017-08-31T13:59:34.973Z,1.43
2017-08-31T14:02:04.254Z,3.20
2017-08-31T14:04:33.459Z,1.77
2017-08-31T14:07:03.103Z,1.00
2017-08-31T14:09:32.669Z,1.60
2017-08-31T14:12:02.489Z,1.30
2017-08-31T14:14:31.589Z,1.20
2017-08-31T14:17:00.706Z,4.07
2017-08-31T14:19:29.729Z,1.43
2017-08-31T14:21:58.783Z,3.03
2017-08-31T14:24:28.312Z,2.00
2017-08-31T14:26:57.960Z,1.13
2017-08-31T14:29:27.628Z,2.77
2017-08-31T14:31:57.115Z,1.73
2017-08-31T14:34:27.360Z,1.73
2017-08-31T14:36:56.761Z,1.77
2017-08-31T14:39:25.796Z,1.57
2017-08-31T14:41:54.783Z,2.17
2017-08-31T14:44:24.040Z,1.20
2017-08-31T14:46:53.606Z,1.43
2017-08-31T14:49:24.126Z,1.20
2017-08-31T14:51:53.643Z,1.00
2017-08-31T14:54:22.809Z,1.20
2017-08-31T14:56:52.395Z,2.00
2017-08-31T14:59:21.226Z,3.00
2017-08-31T15:01:50.496Z,1.13
2017-08-31T15:04:19.813Z,1.03
2017-08-31T15:06:48.937Z,1.67
2017-08-31T15:09:19.235Z,1.80
2017-08-31T15:11:48.831Z,1.17
2017-08-31T15:14:18.345Z,1.80
2017-08-31T15:16:48.111Z,1.97
2017-08-31T15:19:17.282Z,2.00
2017-08-31T15:21:46.381Z,1.20
2017-08-31T15:24:15.414Z,1.30
2017-08-31T15:26:45.452Z,1.20
2017-08-31T15:29:14.409Z,1.30
2017-08-31T15:31:43.301Z,1.40
2017-08-31T15:34:12.848Z,1.80
2017-08-31T15:36:41.837Z,3.43
2017-08-31T15:39:11.385Z,2.70
2017-08-31T15:41:40.864Z,1.70
2017-08-31T15:44:10.202Z,2.00
2017-08-31T15:46:39.571Z,1.80
2017-08-31T15:49:10.008Z,2.23
2017-08-31T15:51:39.251Z,2.30
2017-08-31T15:54:07.947Z,1.93
2017-08-31T15:56:37.887Z,1.53
2017-08-31T15:59:07.124Z,2.00
2017-08-31T16:01:36.491Z,1.67
2017-08-31T16:04:05.807Z,2.10
2017-08-31T16:06:35.250Z,1.70
2017-08-31T16:09:07.433Z,1.47
2017-08-31T16:11:36.636Z,1.63
2017-08-31T16:14:07.006Z,2.70
2017-08-31T16:16:36.098Z,1.40
2017-08-31T16:19:05.948Z,1.77
2017-08-31T16:21:35.220Z,1.47
2017-08-31T16:24:04.595Z,1.17
2017-08-31T16:26:34.559Z,3.30
2017-08-31T16:29:04.080Z,2.50
2017-08-31T16:31:33.612Z,2.00
2017-08-31T16:34:03.133Z,0.97
2017-08-31T16:36:32.088Z,1.80
2017-08-31T16:39:01.461Z,1.93
2017-08-31T16:41:30.708Z,1.40
2017-08-31T16:43:59.982Z,2.37
2017-08-31T16:46:28.650Z,1.37
2017-08-31T16:48:57.986Z,1.10
2017-08-31T16:51:27.664Z,2.60
2017-08-31T16:53:56.896Z,1.40
2017-08-31T16:56:26.251Z,1.37
2017-08-31T16:58:55.305Z,1.80
2017-08-31T17:01:24.894Z,0.83
2017-08-31T17:03:53.913Z,3.30
2017-08-31T17:06:23.185Z,1.50
2017-08-31T17:08:52.536Z,1.47
2017-08-31T17:11:22.657Z,1.40
2017-08-31T17:13:51.433Z,1.23
2017-08-31T17:16:21.428Z,1.60
2017-08-31T17:18:51.611Z,1.63
2017-08-31T17:21:21.245Z,2.13
2017-08-31T17:23:50.081Z,1.20
2017-08-31T17:26:20.043Z,1.80
2017-08-31T17:28:49.205Z,1.30
2017-08-31T17:31:18.643Z,1.80
2017-08-31T17:33:47.693Z,1.50
2017-08-31T17:36:16.964Z,1.40
2017-08-31T17:38:47.821Z,1.43
2017-08-31T17:41:17.024Z,1.93
2017-08-31T17:43:46.139Z,1.50
2017-08-31T17:46:15.300Z,2.23
2017-08-31T17:48:45.192Z,1.80
2017-08-31T17:51:14.852Z,1.23
2017-08-31T17:53:43.780Z,1.43
2017-08-31T17:56:13.342Z,1.30
2017-08-31T17:58:42.714Z,2.10
2017-08-31T18:01:12.048Z,3.67
2017-08-31T18:03:41.047Z,2.60
2017-08-31T18:06:10.042Z,1.83
2017-08-31T18:08:39.329Z,2.00
2017-08-31T18:11:09.409Z,1.53
2017-08-31T18:13:38.803Z,2.93
2017-08-31T18:16:07.995Z,2.50
2017-08-31T18:18:37.671Z,1.50
2017-08-31T18:21:08.037Z,1.57
2017-08-31T18:23:37.175Z,1.67
2017-08-31T18:26:06.228Z,1.27
2017-08-31T18:28:35.592Z,2.20
2017-08-31T18:31:04.742Z,2.43
2017-08-31T18:33:33.981Z,1.23
2017-08-31T18:36:03.062Z,1.67
2017-08-31T18:38:32.166Z,2.07
2017-08-31T18:41:01.417Z,3.23
2017-08-31T18:43:30.515Z,4.10
2017-08-31T18:45:59.280Z,2.10
2017-08-31T18:48:28.659Z,2.03
2017-08-31T18:50:57.849Z,2.40
2017-08-31T18:53:26.871Z,1.97
2017-08-31T18:55:56.054Z,1.60
2017-08-31T18:58:25.583Z,1.67
2017-08-31T19:00:54.564Z,1.63
2017-08-31T19:03:23.364Z,2.33
2017-08-31T19:05:52.917Z,1.70
2017-08-31T19:08:22.276Z,1.50
2017-08-31T19:10:51.307Z,1.63
2017-08-31T19:13:20.952Z,5.93
2017-08-31T19:15:50.070Z,1.50
2017-08-31T19:18:19.811Z,1.67
2017-08-31T19:20:49.215Z,1.47
2017-08-31T19:23:18.746Z,1.73
2017-08-31T19:25:47.829Z,1.50
2017-08-31T19:28:16.614Z,2.97
2017-08-31T19:30:46.393Z,2.67
2017-08-31T19:33:15.440Z,4.00
2017-08-31T19:35:44.227Z,3.50
2017-08-31T19:38:13.636Z,2.07
2017-08-31T19:40:42.678Z,2.53
2017-08-31T19:43:11.870Z,2.20
2017-08-31T19:45:41.218Z,2.03
2017-08-31T19:48:10.272Z,3.17
2017-08-31T19:50:39.280Z,2.57
2017-08-31T19:53:08.228Z,2.30
2017-08-31T19:55:37.631Z,1.60
2017-08-31T19:58:06.930Z,1.53
2017-08-31T20:00:36.286Z,3.23
2017-08-31T20:03:05.619Z,2.47
2017-08-31T20:05:34.715Z,8.13
2017-08-31T20:08:04.208Z,2.50
2017-08-31T20:10:33.359Z,1.77
2017-08-31T20:13:02.631Z,4.53
2017-08-31T20:15:31.846Z,2.93
2017-08-31T20:18:01.214Z,2.00
2017-08-31T20:20:30.181Z,1.90
2017-08-31T20:22:59.482Z,2.37
2017-08-31T20:25:28.925Z,3.23
2017-08-31T20:27:58.100Z,4.73
2017-08-31T20:30:27.461Z,3.30
2017-08-31T20:32:56.941Z,2.87
2017-08-31T20:35:26.757Z,2.40
2017-08-31T20:37:56.043Z,2.53
2017-08-31T20:40:24.979Z,2.10
2017-08-31T20:42:55.486Z,1.70
2017-08-31T20:45:24.505Z,2.10
2017-08-31T20:47:53.741Z,2.43
2017-08-31T20:50:22.971Z,2.37
2017-08-31T20:52:52.001Z,2.40
2017-08-31T20:55:21.657Z,2.27
2017-08-31T20:57:50.589Z,2.40
2017-08-31T21:00:19.850Z,1.93
2017-08-31T21:02:48.951Z,2.57
2017-08-31T21:05:19.143Z,2.40
2017-08-31T21:07:47.953Z,10.23
2017-08-31T21:10:17.270Z,2.60
2017-08-31T21:12:47.892Z,2.20
2017-08-31T21:15:17.257Z,1.67
2017-08-31T21:17:46.587Z,1.70
2017-08-31T21:20:15.905Z,2.17
2017-08-31T21:22:44.853Z,2.13
2017-08-31T21:25:14.703Z,1.87
2017-08-31T21:27:44.125Z,2.00
2017-08-31T21:30:13.376Z,2.27
2017-08-31T21:32:42.541Z,2.23
2017-08-31T21:35:11.536Z,5.43
2017-08-31T21:37:41.137Z,2.00
2017-08-31T21:40:10.092Z,2.03
2017-08-31T21:42:39.349Z,2.60
2017-08-31T21:45:09.041Z,2.47
2017-08-31T21:47:38.578Z,2.00
2017-08-31T21:50:08.153Z,5.00
2017-08-31T21:52:37.108Z,2.40
2017-08-31T21:55:06.266Z,2.33
2017-08-31T21:57:35.755Z,2.00
2017-08-31T22:00:05.381Z,2.70
2017-08-31T22:02:34.696Z,2.13
2017-08-31T22:05:03.789Z,2.50
2017-08-31T22:07:33.519Z,4.00
2017-08-31T22:10:02.542Z,3.13
2017-08-31T22:12:33.305Z,3.60
2017-08-31T22:15:02.504Z,2.30
2017-08-31T22:17:32.177Z,2.40
2017-08-31T22:20:01.500Z,3.23
2017-08-31T22:22:30.803Z,2.40
2017-08-31T22:24:59.833Z,2.30
2017-08-31T22:27:28.975Z,3.40
2017-08-31T22:29:58.109Z,2.10
2017-08-31T22:32:27.454Z,2.40
2017-08-31T22:34:56.922Z,2.40
2017-08-31T22:37:25.872Z,2.20
2017-08-31T22:39:55.293Z,2.40
2017-08-31T22:42:24.703Z,4.40
2017-08-31T22:44:54.080Z,2.57
2017-08-31T22:47:23.451Z,4.40
2017-08-31T22:49:52.938Z,3.00
2017-08-31T22:52:22.410Z,3.23
2017-08-31T22:54:51.570Z,2.17
2017-08-31T22:57:32.797Z,3.27
2017-08-31T23:00:02.224Z,3.40
2017-08-31T23:02:31.863Z,2.60
2017-08-31T23:05:01.020Z,2.73
2017-08-31T23:07:30.849Z,3.37
2017-08-31T23:10:00.329Z,3.00
2017-08-31T23:12:30.321Z,3.07
2017-08-31T23:14:59.809Z,2.60
2017-08-31T23:17:29.276Z,6.20
2017-08-31T23:19:58.546Z,3.80
2017-08-31T23:22:28.217Z,3.20
2017-08-31T23:24:57.331Z,2.33
2017-08-31T23:27:27.661Z,2.33
2017-08-31T23:29:56.970Z,2.80
2017-08-31T23:32:26.415Z,4.73
2017-08-31T23:34:55.932Z,2.70
2017-08-31T23:37:25.718Z,2.70
2017-08-31T23:39:55.280Z,4.10
2017-08-31T23:42:24.958Z,3.17
2017-08-31T23:44:54.545Z,3.23
2017-08-31T23:47:24.099Z,2.80
2017-08-31T23:49:54.125Z,2.70
2017-08-31T23:52:23.504Z,5.63
2017-08-31T23:54:52.944Z,2.30
2017-08-31T23:57:22.802Z,2.50
2017-08-31T23:59:51.468Z,2.83
